sensor_id;sensor_type;location;lat;lon;timestamp;temperature;humidity
26035;DHT22;13809;48.632;11.576;2023-04-24T00:01:13;15.50;40.50
26035;DHT22;13809;48.632;11.576;2023-04-24T00:06:17;15.50;41.10
26035;DHT22;13809;48.632;11.576;2023-04-24T00:11:20;15.40;40.50
26035;DHT22;13809;48.632;11.576;2023-04-24T00:16:24;15.40;40.50
26035;DHT22;13809;48.632;11.576;2023-04-24T00:21:27;15.40;41.10
26035;DHT22;13809;48.632;11.576;2023-04-24T00:26:31;15.40;40.70
26035;DHT22;13809;48.632;11.576;2023-04-24T00:31:36;15.40;40.80
26035;DHT22;13809;48.632;11.576;2023-04-24T00:36:39;15.40;41.40
26035;DHT22;13809;48.632;11.576;2023-04-24T00:41:43;15.40;40.90
26035;DHT22;13809;48.632;11.576;2023-04-24T00:46:48;15.40;41.00
26035;DHT22;13809;48.632;11.576;2023-04-24T00:51:56;15.40;41.50
26035;DHT22;13809;48.632;11.576;2023-04-24T00:57:01;15.30;40.80
26035;DHT22;13809;48.632;11.576;2023-04-24T01:02:06;15.20;41.00
26035;DHT22;13809;48.632;11.576;2023-04-24T01:07:10;15.20;41.50
26035;DHT22;13809;48.632;11.576;2023-04-24T01:12:13;15.10;41.10
26035;DHT22;13809;48.632;11.576;2023-04-24T01:17:19;15.00;41.20
26035;DHT22;13809;48.632;11.576;2023-04-24T01:22:23;15.00;41.70
26035;DHT22;13809;48.632;11.576;2023-04-24T01:27:27;14.90;41.70
26035;DHT22;13809;48.632;11.576;2023-04-24T01:32:30;14.90;41.50
26035;DHT22;13809;48.632;11.576;2023-04-24T01:37:35;14.80;41.50
26035;DHT22;13809;48.632;11.576;2023-04-24T01:42:41;14.80;42.60
26035;DHT22;13809;48.632;11.576;2023-04-24T01:47:45;14.80;42.20
26035;DHT22;13809;48.632;11.576;2023-04-24T01:52:50;14.70;41.70
26035;DHT22;13809;48.632;11.576;2023-04-24T01:57:55;14.70;42.00
26035;DHT22;13809;48.632;11.576;2023-04-24T02:02:58;14.60;41.90
26035;DHT22;13809;48.632;11.576;2023-04-24T02:08:05;14.60;41.60
26035;DHT22;13809;48.632;11.576;2023-04-24T02:13:08;14.60;42.00
26035;DHT22;13809;48.632;11.576;2023-04-24T02:18:12;14.60;41.60
26035;DHT22;13809;48.632;11.576;2023-04-24T02:23:16;14.50;41.60
26035;DHT22;13809;48.632;11.576;2023-04-24T02:28:19;14.50;42.00
26035;DHT22;13809;48.632;11.576;2023-04-24T02:33:22;14.50;41.70
26035;DHT22;13809;48.632;11.576;2023-04-24T02:38:27;14.40;41.70
26035;DHT22;13809;48.632;11.576;2023-04-24T02:43:30;14.40;42.00
26035;DHT22;13809;48.632;11.576;2023-04-24T02:48:33;14.40;41.70
26035;DHT22;13809;48.632;11.576;2023-04-24T02:53:38;14.40;41.70
26035;DHT22;13809;48.632;11.576;2023-04-24T02:58:41;14.40;42.10
26035;DHT22;13809;48.632;11.576;2023-04-24T03:03:45;14.40;41.80
26035;DHT22;13809;48.632;11.576;2023-04-24T03:08:49;14.30;41.80
26035;DHT22;13809;48.632;11.576;2023-04-24T03:13:53;14.30;42.30
26035;DHT22;13809;48.632;11.576;2023-04-24T03:18:56;14.30;41.80
26035;DHT22;13809;48.632;11.576;2023-04-24T03:24:00;14.30;41.90
26035;DHT22;13809;48.632;11.576;2023-04-24T03:29:04;14.30;42.30
26035;DHT22;13809;48.632;11.576;2023-04-24T03:34:07;14.30;42.30
26035;DHT22;13809;48.632;11.576;2023-04-24T03:39:11;14.20;42.10
26035;DHT22;13809;48.632;11.576;2023-04-24T03:44:15;14.30;42.60
26035;DHT22;13809;48.632;11.576;2023-04-24T03:49:18;14.10;42.00
26035;DHT22;13809;48.632;11.576;2023-04-24T03:54:22;14.20;42.20
26035;DHT22;13809;48.632;11.576;2023-04-24T03:59:26;14.30;42.50
26035;DHT22;13809;48.632;11.576;2023-04-24T04:04:29;14.40;42.10
26035;DHT22;13809;48.632;11.576;2023-04-24T04:09:34;14.30;41.90
26035;DHT22;13809;48.632;11.576;2023-04-24T04:14:37;14.30;42.40
26035;DHT22;13809;48.632;11.576;2023-04-24T04:19:40;14.30;41.90
26035;DHT22;13809;48.632;11.576;2023-04-24T04:24:45;14.30;41.90
26035;DHT22;13809;48.632;11.576;2023-04-24T04:29:48;14.30;42.50
26035;DHT22;13809;48.632;11.576;2023-04-24T04:34:52;14.30;42.00
26035;DHT22;13809;48.632;11.576;2023-04-24T04:39:56;14.30;42.20
26035;DHT22;13809;48.632;11.576;2023-04-24T04:45:00;14.20;42.50
26035;DHT22;13809;48.632;11.576;2023-04-24T04:50:04;14.20;42.30
26035;DHT22;13809;48.632;11.576;2023-04-24T04:55:09;14.20;42.40
26035;DHT22;13809;48.632;11.576;2023-04-24T05:00:13;14.20;42.70
26035;DHT22;13809;48.632;11.576;2023-04-24T05:05:17;14.20;42.60
26035;DHT22;13809;48.632;11.576;2023-04-24T05:10:22;14.20;42.60
26035;DHT22;13809;48.632;11.576;2023-04-24T05:15:25;14.20;42.50
26035;DHT22;13809;48.632;11.576;2023-04-24T05:20:28;14.20;42.40
26035;DHT22;13809;48.632;11.576;2023-04-24T05:25:33;14.20;42.50
26035;DHT22;13809;48.632;11.576;2023-04-24T05:30:37;14.10;43.00
26035;DHT22;13809;48.632;11.576;2023-04-24T05:35:40;14.10;42.80
26035;DHT22;13809;48.632;11.576;2023-04-24T05:40:48;14.10;43.10
26035;DHT22;13809;48.632;11.576;2023-04-24T05:45:51;14.10;43.50
26035;DHT22;13809;48.632;11.576;2023-04-24T05:50:55;14.10;43.10
26035;DHT22;13809;48.632;11.576;2023-04-24T05:55:59;14.10;43.30
26035;DHT22;13809;48.632;11.576;2023-04-24T06:01:03;14.10;43.60
26035;DHT22;13809;48.632;11.576;2023-04-24T06:06:06;14.10;43.50
26035;DHT22;13809;48.632;11.576;2023-04-24T06:11:11;14.20;43.60
26035;DHT22;13809;48.632;11.576;2023-04-24T06:16:14;14.20;43.60
26035;DHT22;13809;48.632;11.576;2023-04-24T06:21:17;14.30;43.50
26035;DHT22;13809;48.632;11.576;2023-04-24T06:26:22;14.30;43.30
26035;DHT22;13809;48.632;11.576;2023-04-24T06:31:26;14.30;43.70
26035;DHT22;13809;48.632;11.576;2023-04-24T06:36:30;14.40;43.50
26035;DHT22;13809;48.632;11.576;2023-04-24T06:41:35;14.40;43.10
26035;DHT22;13809;48.632;11.576;2023-04-24T06:46:38;14.50;43.40
26035;DHT22;13809;48.632;11.576;2023-04-24T06:51:42;14.50;43.10
26035;DHT22;13809;48.632;11.576;2023-04-24T06:56:47;14.60;43.10
26035;DHT22;13809;48.632;11.576;2023-04-24T07:01:51;14.60;43.20
26035;DHT22;13809;48.632;11.576;2023-04-24T07:06:56;14.60;43.00
26035;DHT22;13809;48.632;11.576;2023-04-24T07:12:01;14.70;42.90
26035;DHT22;13809;48.632;11.576;2023-04-24T07:17:05;14.70;43.00
26035;DHT22;13809;48.632;11.576;2023-04-24T07:22:08;14.70;43.00
26035;DHT22;13809;48.632;11.576;2023-04-24T07:27:14;14.70;43.00
26035;DHT22;13809;48.632;11.576;2023-04-24T07:32:17;14.80;42.90
26035;DHT22;13809;48.632;11.576;2023-04-24T07:37:21;14.90;42.90
26035;DHT22;13809;48.632;11.576;2023-04-24T07:42:25;14.90;42.90
26035;DHT22;13809;48.632;11.576;2023-04-24T07:47:29;15.00;42.70
26035;DHT22;13809;48.632;11.576;2023-04-24T07:52:32;15.00;43.30
26035;DHT22;13809;48.632;11.576;2023-04-24T07:57:36;15.10;42.50
26035;DHT22;13809;48.632;11.576;2023-04-24T08:02:40;15.00;42.50
26035;DHT22;13809;48.632;11.576;2023-04-24T08:07:43;15.00;42.20
26035;DHT22;13809;48.632;11.576;2023-04-24T08:12:49;15.00;41.20
26035;DHT22;13809;48.632;11.576;2023-04-24T08:17:52;14.80;41.00
26035;DHT22;13809;48.632;11.576;2023-04-24T08:22:59;14.50;40.50
26035;DHT22;13809;48.632;11.576;2023-04-24T08:28:06;14.30;40.20
26035;DHT22;13809;48.632;11.576;2023-04-24T08:33:09;14.00;40.60
26035;DHT22;13809;48.632;11.576;2023-04-24T08:38:12;13.80;40.50
26035;DHT22;13809;48.632;11.576;2023-04-24T08:43:17;13.70;41.10
26035;DHT22;13809;48.632;11.576;2023-04-24T08:48:20;13.60;41.50
26035;DHT22;13809;48.632;11.576;2023-04-24T08:53:33;13.50;41.40
26035;DHT22;13809;48.632;11.576;2023-04-24T08:58:38;13.50;41.70
26035;DHT22;13809;48.632;11.576;2023-04-24T09:03:41;13.60;42.60
26035;DHT22;13809;48.632;11.576;2023-04-24T09:08:45;13.70;42.20
26035;DHT22;13809;48.632;11.576;2023-04-24T09:13:52;13.80;42.30
26035;DHT22;13809;48.632;11.576;2023-04-24T09:18:55;14.00;42.20
26035;DHT22;13809;48.632;11.576;2023-04-24T09:23:59;14.10;42.20
26035;DHT22;13809;48.632;11.576;2023-04-24T09:29:05;14.20;41.90
26035;DHT22;13809;48.632;11.576;2023-04-24T09:34:09;14.40;41.60
26035;DHT22;13809;48.632;11.576;2023-04-24T09:39:14;14.50;41.20
26035;DHT22;13809;48.632;11.576;2023-04-24T09:44:20;14.60;41.20
26035;DHT22;13809;48.632;11.576;2023-04-24T09:49:25;14.70;40.00
26035;DHT22;13809;48.632;11.576;2023-04-24T09:54:29;14.80;40.00
26035;DHT22;13809;48.632;11.576;2023-04-24T09:59:33;14.80;40.30
26035;DHT22;13809;48.632;11.576;2023-04-24T10:04:38;14.90;40.10
26035;DHT22;13809;48.632;11.576;2023-04-24T10:09:41;15.00;40.30
26035;DHT22;13809;48.632;11.576;2023-04-24T10:14:46;15.10;40.80
26035;DHT22;13809;48.632;11.576;2023-04-24T10:19:50;15.20;40.10
26035;DHT22;13809;48.632;11.576;2023-04-24T10:24:54;15.40;40.40
26035;DHT22;13809;48.632;11.576;2023-04-24T10:29:59;15.60;40.40
26035;DHT22;13809;48.632;11.576;2023-04-24T10:35:03;15.70;39.40
26035;DHT22;13809;48.632;11.576;2023-04-24T10:40:08;15.90;40.00
26035;DHT22;13809;48.632;11.576;2023-04-24T10:45:18;16.00;39.20
26035;DHT22;13809;48.632;11.576;2023-04-24T10:50:23;16.10;38.80
26035;DHT22;13809;48.632;11.576;2023-04-24T10:55:44;16.00;38.90
26035;DHT22;13809;48.632;11.576;2023-04-24T11:00:58;15.90;38.80
26035;DHT22;13809;48.632;11.576;2023-04-24T11:06:03;15.60;38.70
26035;DHT22;13809;48.632;11.576;2023-04-24T11:11:11;15.30;39.30
26035;DHT22;13809;48.632;11.576;2023-04-24T11:16:20;15.10;39.80
26035;DHT22;13809;48.632;11.576;2023-04-24T11:21:24;15.10;40.50
26035;DHT22;13809;48.632;11.576;2023-04-24T11:26:28;15.20;40.70
26035;DHT22;13809;48.632;11.576;2023-04-24T11:31:36;15.30;40.60
26035;DHT22;13809;48.632;11.576;2023-04-24T11:36:42;15.50;40.40
26035;DHT22;13809;48.632;11.576;2023-04-24T11:41:46;15.60;39.90
26035;DHT22;13809;48.632;11.576;2023-04-24T11:46:51;15.70;39.80
26035;DHT22;13809;48.632;11.576;2023-04-24T11:51:55;15.70;39.50
26035;DHT22;13809;48.632;11.576;2023-04-24T11:57:04;15.80;39.60
26035;DHT22;13809;48.632;11.576;2023-04-24T12:02:20;15.90;38.90
26035;DHT22;13809;48.632;11.576;2023-04-24T12:07:24;16.00;39.10
26035;DHT22;13809;48.632;11.576;2023-04-24T12:12:28;16.10;38.90
26035;DHT22;13809;48.632;11.576;2023-04-24T12:17:33;16.20;37.90
26035;DHT22;13809;48.632;11.576;2023-04-24T12:22:45;16.40;36.70
26035;DHT22;13809;48.632;11.576;2023-04-24T12:27:53;16.50;35.50
26035;DHT22;13809;48.632;11.576;2023-04-24T12:32:59;16.70;35.00
26035;DHT22;13809;48.632;11.576;2023-04-24T12:38:06;16.80;36.00
26035;DHT22;13809;48.632;11.576;2023-04-24T12:43:14;16.90;34.10
26035;DHT22;13809;48.632;11.576;2023-04-24T12:48:19;17.00;34.50
26035;DHT22;13809;48.632;11.576;2023-04-24T12:53:24;17.00;34.30
26035;DHT22;13809;48.632;11.576;2023-04-24T12:58:28;17.10;34.60
26035;DHT22;13809;48.632;11.576;2023-04-24T13:03:32;17.10;34.10
26035;DHT22;13809;48.632;11.576;2023-04-24T13:08:38;17.10;34.00
26035;DHT22;13809;48.632;11.576;2023-04-24T13:13:41;17.00;33.90
26035;DHT22;13809;48.632;11.576;2023-04-24T13:18:46;16.90;33.80
26035;DHT22;13809;48.632;11.576;2023-04-24T13:23:49;16.90;33.80
26035;DHT22;13809;48.632;11.576;2023-04-24T13:28:53;16.90;34.30
26035;DHT22;13809;48.632;11.576;2023-04-24T13:33:58;17.00;33.10
26035;DHT22;13809;48.632;11.576;2023-04-24T13:39:02;17.10;32.40
26035;DHT22;13809;48.632;11.576;2023-04-24T13:44:06;17.10;33.10
26035;DHT22;13809;48.632;11.576;2023-04-24T13:49:10;17.10;33.30
26035;DHT22;13809;48.632;11.576;2023-04-24T13:54:14;17.00;31.80
26035;DHT22;13809;48.632;11.576;2023-04-24T13:59:18;17.00;31.90
26035;DHT22;13809;48.632;11.576;2023-04-24T14:04:23;16.90;31.20
26035;DHT22;13809;48.632;11.576;2023-04-24T14:09:27;16.70;31.10
26035;DHT22;13809;48.632;11.576;2023-04-24T14:14:30;16.60;31.20
26035;DHT22;13809;48.632;11.576;2023-04-24T14:19:35;16.60;31.40
26035;DHT22;13809;48.632;11.576;2023-04-24T14:24:38;16.50;31.80
26035;DHT22;13809;48.632;11.576;2023-04-24T14:29:41;16.50;32.00
26035;DHT22;13809;48.632;11.576;2023-04-24T14:34:46;16.60;31.80
26035;DHT22;13809;48.632;11.576;2023-04-24T14:39:49;16.60;30.90
26035;DHT22;13809;48.632;11.576;2023-04-24T14:45:12;16.60;31.70
26035;DHT22;13809;48.632;11.576;2023-04-24T14:50:16;16.60;31.70
26035;DHT22;13809;48.632;11.576;2023-04-24T14:55:20;16.60;30.00
26035;DHT22;13809;48.632;11.576;2023-04-24T15:00:23;16.50;30.60
26035;DHT22;13809;48.632;11.576;2023-04-24T15:05:28;16.50;30.70
26035;DHT22;13809;48.632;11.576;2023-04-24T15:10:32;16.50;29.80
26035;DHT22;13809;48.632;11.576;2023-04-24T15:15:35;16.40;30.60
26035;DHT22;13809;48.632;11.576;2023-04-24T15:20:40;16.40;30.70
26035;DHT22;13809;48.632;11.576;2023-04-24T15:25:44;16.40;30.60
26035;DHT22;13809;48.632;11.576;2023-04-24T15:30:47;16.40;30.50
26035;DHT22;13809;48.632;11.576;2023-04-24T15:35:52;16.40;30.50
26035;DHT22;13809;48.632;11.576;2023-04-24T15:40:55;16.40;30.00
26035;DHT22;13809;48.632;11.576;2023-04-24T15:45:58;16.30;30.40
26035;DHT22;13809;48.632;11.576;2023-04-24T15:51:03;16.30;30.20
26035;DHT22;13809;48.632;11.576;2023-04-24T15:56:06;16.20;30.00
26035;DHT22;13809;48.632;11.576;2023-04-24T16:01:09;16.20;29.40
26035;DHT22;13809;48.632;11.576;2023-04-24T16:06:13;16.10;30.10
26035;DHT22;13809;48.632;11.576;2023-04-24T16:11:17;16.20;30.00
26035;DHT22;13809;48.632;11.576;2023-04-24T16:16:20;16.20;30.10
26035;DHT22;13809;48.632;11.576;2023-04-24T16:21:26;16.20;30.30
26035;DHT22;13809;48.632;11.576;2023-04-24T16:26:29;16.20;30.00
26035;DHT22;13809;48.632;11.576;2023-04-24T16:31:32;16.20;30.40
26035;DHT22;13809;48.632;11.576;2023-04-24T16:36:37;16.10;30.40
26035;DHT22;13809;48.632;11.576;2023-04-24T16:41:40;16.10;30.00
26035;DHT22;13809;48.632;11.576;2023-04-24T16:46:43;16.10;30.20
26035;DHT22;13809;48.632;11.576;2023-04-24T16:51:48;16.00;30.20
26035;DHT22;13809;48.632;11.576;2023-04-24T16:56:52;16.00;30.00
26035;DHT22;13809;48.632;11.576;2023-04-24T17:01:55;15.90;29.90
26035;DHT22;13809;48.632;11.576;2023-04-24T17:07:00;15.90;30.00
26035;DHT22;13809;48.632;11.576;2023-04-24T17:12:03;15.80;29.70
26035;DHT22;13809;48.632;11.576;2023-04-24T17:17:07;15.80;30.10
26035;DHT22;13809;48.632;11.576;2023-04-24T17:22:12;15.70;30.10
26035;DHT22;13809;48.632;11.576;2023-04-24T17:27:15;15.70;30.00
26035;DHT22;13809;48.632;11.576;2023-04-24T17:32:18;15.60;30.30
26035;DHT22;13809;48.632;11.576;2023-04-24T17:37:23;15.60;30.10
26035;DHT22;13809;48.632;11.576;2023-04-24T17:42:26;15.60;29.90
26035;DHT22;13809;48.632;11.576;2023-04-24T17:47:29;15.50;30.00
26035;DHT22;13809;48.632;11.576;2023-04-24T17:52:33;15.40;30.00
26035;DHT22;13809;48.632;11.576;2023-04-24T17:57:37;15.30;30.00
26035;DHT22;13809;48.632;11.576;2023-04-24T18:02:40;15.30;30.40
26035;DHT22;13809;48.632;11.576;2023-04-24T18:07:45;15.30;30.10
26035;DHT22;13809;48.632;11.576;2023-04-24T18:12:48;15.20;30.30
26035;DHT22;13809;48.632;11.576;2023-04-24T18:17:51;15.20;30.30
26035;DHT22;13809;48.632;11.576;2023-04-24T18:22:56;15.20;30.00
26035;DHT22;13809;48.632;11.576;2023-04-24T18:27:59;15.10;30.00
26035;DHT22;13809;48.632;11.576;2023-04-24T18:33:02;15.10;30.10
26035;DHT22;13809;48.632;11.576;2023-04-24T18:38:07;14.90;30.00
26035;DHT22;13809;48.632;11.576;2023-04-24T18:43:10;14.80;30.00
26035;DHT22;13809;48.632;11.576;2023-04-24T18:48:13;14.80;30.30
26035;DHT22;13809;48.632;11.576;2023-04-24T18:53:18;14.70;30.40
26035;DHT22;13809;48.632;11.576;2023-04-24T18:58:21;14.70;30.40
26035;DHT22;13809;48.632;11.576;2023-04-24T19:03:24;14.70;30.30
26035;DHT22;13809;48.632;11.576;2023-04-24T19:08:30;14.70;30.40
26035;DHT22;13809;48.632;11.576;2023-04-24T19:13:33;14.70;30.40
26035;DHT22;13809;48.632;11.576;2023-04-24T19:18:36;14.60;30.20
26035;DHT22;13809;48.632;11.576;2023-04-24T19:23:41;14.60;30.40
26035;DHT22;13809;48.632;11.576;2023-04-24T19:28:45;14.50;30.50
26035;DHT22;13809;48.632;11.576;2023-04-24T19:33:48;14.40;30.70
26035;DHT22;13809;48.632;11.576;2023-04-24T19:38:53;14.40;31.00
26035;DHT22;13809;48.632;11.576;2023-04-24T19:43:56;14.40;31.20
26035;DHT22;13809;48.632;11.576;2023-04-24T19:48:59;14.30;31.00
26035;DHT22;13809;48.632;11.576;2023-04-24T19:54:04;14.40;31.00
26035;DHT22;13809;48.632;11.576;2023-04-24T19:59:07;14.30;31.20
26035;DHT22;13809;48.632;11.576;2023-04-24T20:04:10;14.30;31.50
26035;DHT22;13809;48.632;11.576;2023-04-24T20:09:15;14.20;31.10
26035;DHT22;13809;48.632;11.576;2023-04-24T20:14:18;14.20;31.10
26035;DHT22;13809;48.632;11.576;2023-04-24T20:19:21;14.20;31.40
26035;DHT22;13809;48.632;11.576;2023-04-24T20:24:26;14.10;31.30
26035;DHT22;13809;48.632;11.576;2023-04-24T20:29:30;14.00;31.20
26035;DHT22;13809;48.632;11.576;2023-04-24T20:34:33;13.90;31.10
26035;DHT22;13809;48.632;11.576;2023-04-24T20:39:39;13.80;31.10
26035;DHT22;13809;48.632;11.576;2023-04-24T20:44:42;13.70;31.20
26035;DHT22;13809;48.632;11.576;2023-04-24T20:49:46;13.70;31.10
26035;DHT22;13809;48.632;11.576;2023-04-24T20:54:50;13.70;31.00
26035;DHT22;13809;48.632;11.576;2023-04-24T20:59:54;13.60;31.40
26035;DHT22;13809;48.632;11.576;2023-04-24T21:04:57;13.60;31.50
26035;DHT22;13809;48.632;11.576;2023-04-24T21:10:02;13.60;31.60
26035;DHT22;13809;48.632;11.576;2023-04-24T21:15:06;13.60;31.70
26035;DHT22;13809;48.632;11.576;2023-04-24T21:20:10;13.60;31.50
26035;DHT22;13809;48.632;11.576;2023-04-24T21:25:14;13.50;31.50
26035;DHT22;13809;48.632;11.576;2023-04-24T21:30:18;13.40;31.70
26035;DHT22;13809;48.632;11.576;2023-04-24T21:35:22;13.30;31.60
26035;DHT22;13809;48.632;11.576;2023-04-24T21:40:27;13.20;31.60
26035;DHT22;13809;48.632;11.576;2023-04-24T21:45:31;13.00;31.90
26035;DHT22;13809;48.632;11.576;2023-04-24T21:50:34;12.90;31.90
26035;DHT22;13809;48.632;11.576;2023-04-24T21:55:39;12.80;32.10
26035;DHT22;13809;48.632;11.576;2023-04-24T22:00:42;12.70;32.50
26035;DHT22;13809;48.632;11.576;2023-04-24T22:05:45;12.70;32.60
26035;DHT22;13809;48.632;11.576;2023-04-24T22:10:50;12.70;32.60
26035;DHT22;13809;48.632;11.576;2023-04-24T22:15:53;12.80;32.90
26035;DHT22;13809;48.632;11.576;2023-04-24T22:20:57;12.80;32.80
26035;DHT22;13809;48.632;11.576;2023-04-24T22:26:03;12.90;32.90
26035;DHT22;13809;48.632;11.576;2023-04-24T22:31:06;12.90;33.00
26035;DHT22;13809;48.632;11.576;2023-04-24T22:36:10;12.90;32.50
26035;DHT22;13809;48.632;11.576;2023-04-24T22:41:14;12.90;32.40
26035;DHT22;13809;48.632;11.576;2023-04-24T22:46:17;12.80;32.60
26035;DHT22;13809;48.632;11.576;2023-04-24T22:51:21;12.70;32.60
26035;DHT22;13809;48.632;11.576;2023-04-24T22:56:25;12.70;32.80
26035;DHT22;13809;48.632;11.576;2023-04-24T23:01:28;12.70;33.20
26035;DHT22;13809;48.632;11.576;2023-04-24T23:06:31;12.70;32.90
26035;DHT22;13809;48.632;11.576;2023-04-24T23:11:36;12.60;33.00
26035;DHT22;13809;48.632;11.576;2023-04-24T23:16:39;12.60;33.20
26035;DHT22;13809;48.632;11.576;2023-04-24T23:21:43;12.60;32.90
26035;DHT22;13809;48.632;11.576;2023-04-24T23:26:48;12.50;32.70
26035;DHT22;13809;48.632;11.576;2023-04-24T23:31:51;12.30;32.90
26035;DHT22;13809;48.632;11.576;2023-04-24T23:36:54;12.30;32.90
26035;DHT22;13809;48.632;11.576;2023-04-24T23:41:59;12.20;33.00
26035;DHT22;13809;48.632;11.576;2023-04-24T23:47:03;12.10;33.20
26035;DHT22;13809;48.632;11.576;2023-04-24T23:52:06;11.90;33.10
26035;DHT22;13809;48.632;11.576;2023-04-24T23:57:11;11.90;33.40
